sensor_id;sensor_type;location;lat;lon;timestamp;temperature;humidity
79489;SHT31;68949;53.176;18.088;2023-05-18T00:00:01;5.89;70.32
79489;SHT31;68949;53.176;18.088;2023-05-18T00:02:51;5.91;70.19
79489;SHT31;68949;53.176;18.088;2023-05-18T00:05:17;5.96;70.04
79489;SHT31;68949;53.176;18.088;2023-05-18T00:07:44;5.99;70.05
79489;SHT31;68949;53.176;18.088;2023-05-18T00:10:12;6.00;70.02
79489;SHT31;68949;53.176;18.088;2023-05-18T00:12:38;6.03;69.99
79489;SHT31;68949;53.176;18.088;2023-05-18T00:15:05;6.04;70.05
79489;SHT31;68949;53.176;18.088;2023-05-18T00:17:32;6.04;70.04
79489;SHT31;68949;53.176;18.088;2023-05-18T00:19:59;6.02;70.19
79489;SHT31;68949;53.176;18.088;2023-05-18T00:22:26;5.98;70.17
79489;SHT31;68949;53.176;18.088;2023-05-18T00:24:52;5.93;70.43
79489;SHT31;68949;53.176;18.088;2023-05-18T00:27:19;5.86;70.41
79489;SHT31;68949;53.176;18.088;2023-05-18T00:29:46;5.82;70.32
79489;SHT31;68949;53.176;18.088;2023-05-18T00:32:12;5.81;70.44
79489;SHT31;68949;53.176;18.088;2023-05-18T00:34:39;5.85;70.48
79489;SHT31;68949;53.176;18.088;2023-05-18T00:37:06;5.85;70.58
79489;SHT31;68949;53.176;18.088;2023-05-18T00:39:32;5.82;70.58
79489;SHT31;68949;53.176;18.088;2023-05-18T00:41:59;5.74;70.99
79489;SHT31;68949;53.176;18.088;2023-05-18T00:44:25;5.68;71.01
79489;SHT31;68949;53.176;18.088;2023-05-18T00:46:52;5.68;71.01
79489;SHT31;68949;53.176;18.088;2023-05-18T00:49:19;5.69;71.16
79489;SHT31;68949;53.176;18.088;2023-05-18T00:51:45;5.70;71.10
79489;SHT31;68949;53.176;18.088;2023-05-18T00:54:13;5.70;72.02
79489;SHT31;68949;53.176;18.088;2023-05-18T00:56:41;5.66;72.17
79489;SHT31;68949;53.176;18.088;2023-05-18T00:59:11;5.64;71.48
79489;SHT31;68949;53.176;18.088;2023-05-18T01:01:38;5.62;71.32
79489;SHT31;68949;53.176;18.088;2023-05-18T01:04:08;5.60;71.53
79489;SHT31;68949;53.176;18.088;2023-05-18T01:06:39;5.70;71.91
79489;SHT31;68949;53.176;18.088;2023-05-18T01:09:08;5.73;71.99
79489;SHT31;68949;53.176;18.088;2023-05-18T01:17:28;5.48;71.67
79489;SHT31;68949;53.176;18.088;2023-05-18T01:20:31;5.38;71.91
79489;SHT31;68949;53.176;18.088;2023-05-18T01:26:30;5.36;71.79
79489;SHT31;68949;53.176;18.088;2023-05-18T01:29:04;5.41;71.75
79489;SHT31;68949;53.176;18.088;2023-05-18T01:31:36;5.44;71.93
79489;SHT31;68949;53.176;18.088;2023-05-18T01:34:05;5.46;72.36
79489;SHT31;68949;53.176;18.088;2023-05-18T01:36:31;5.52;72.44
79489;SHT31;68949;53.176;18.088;2023-05-18T01:38:58;5.53;72.23
79489;SHT31;68949;53.176;18.088;2023-05-18T01:41:27;5.44;72.63
79489;SHT31;68949;53.176;18.088;2023-05-18T01:52:22;4.99;73.04
79489;SHT31;68949;53.176;18.088;2023-05-18T01:54:58;5.02;72.87
79489;SHT31;68949;53.176;18.088;2023-05-18T01:57:29;5.04;72.83
79489;SHT31;68949;53.176;18.088;2023-05-18T01:59:58;5.03;73.00
79489;SHT31;68949;53.176;18.088;2023-05-18T02:02:26;4.95;73.21
79489;SHT31;68949;53.176;18.088;2023-05-18T02:04:53;4.95;73.06
79489;SHT31;68949;53.176;18.088;2023-05-18T02:07:20;4.96;72.97
79489;SHT31;68949;53.176;18.088;2023-05-18T02:09:47;4.98;73.62
79489;SHT31;68949;53.176;18.088;2023-05-18T02:12:14;5.03;73.91
79489;SHT31;68949;53.176;18.088;2023-05-18T02:14:41;5.01;73.91
79489;SHT31;68949;53.176;18.088;2023-05-18T02:17:07;4.99;73.67
79489;SHT31;68949;53.176;18.088;2023-05-18T02:19:34;4.96;73.67
79489;SHT31;68949;53.176;18.088;2023-05-18T02:22:04;4.84;73.98
79489;SHT31;68949;53.176;18.088;2023-05-18T02:24:35;4.68;74.22
79489;SHT31;68949;53.176;18.088;2023-05-18T02:27:03;4.58;74.42
79489;SHT31;68949;53.176;18.088;2023-05-18T02:29:31;4.50;74.68
79489;SHT31;68949;53.176;18.088;2023-05-18T02:31:57;4.40;74.99
79489;SHT31;68949;53.176;18.088;2023-05-18T02:34:25;4.34;75.17
79489;SHT31;68949;53.176;18.088;2023-05-18T02:36:52;4.32;75.18
79489;SHT31;68949;53.176;18.088;2023-05-18T02:39:23;4.32;75.28
79489;SHT31;68949;53.176;18.088;2023-05-18T02:41:49;4.30;75.74
79489;SHT31;68949;53.176;18.088;2023-05-18T02:44:16;4.29;76.03
79489;SHT31;68949;53.176;18.088;2023-05-18T02:46:43;4.30;76.20
79489;SHT31;68949;53.176;18.088;2023-05-18T02:49:09;4.32;76.22
79489;SHT31;68949;53.176;18.088;2023-05-18T02:51:37;4.37;76.14
79489;SHT31;68949;53.176;18.088;2023-05-18T02:54:04;4.39;76.16
79489;SHT31;68949;53.176;18.088;2023-05-18T02:56:32;4.38;76.12
79489;SHT31;68949;53.176;18.088;2023-05-18T02:59:06;4.40;76.01
79489;SHT31;68949;53.176;18.088;2023-05-18T03:01:39;4.41;76.18
79489;SHT31;68949;53.176;18.088;2023-05-18T03:04:06;4.42;76.32
79489;SHT31;68949;53.176;18.088;2023-05-18T03:06:33;4.44;76.29
79489;SHT31;68949;53.176;18.088;2023-05-18T03:09:01;4.47;76.13
79489;SHT31;68949;53.176;18.088;2023-05-18T03:11:35;4.53;75.86
79489;SHT31;68949;53.176;18.088;2023-05-18T03:14:02;4.55;76.01
79489;SHT31;68949;53.176;18.088;2023-05-18T03:16:28;4.58;76.12
79489;SHT31;68949;53.176;18.088;2023-05-18T03:18:55;4.61;76.16
79489;SHT31;68949;53.176;18.088;2023-05-18T03:21:31;4.62;76.26
79489;SHT31;68949;53.176;18.088;2023-05-18T03:24:02;4.62;76.47
79489;SHT31;68949;53.176;18.088;2023-05-18T03:26:29;4.61;76.63
79489;SHT31;68949;53.176;18.088;2023-05-18T03:28:57;4.64;76.63
79489;SHT31;68949;53.176;18.088;2023-05-18T03:31:24;4.66;76.65
79489;SHT31;68949;53.176;18.088;2023-05-18T03:33:52;4.69;76.69
79489;SHT31;68949;53.176;18.088;2023-05-18T03:36:19;4.71;76.60
79489;SHT31;68949;53.176;18.088;2023-05-18T03:38:47;4.72;76.63
79489;SHT31;68949;53.176;18.088;2023-05-18T03:41:15;4.75;76.69
79489;SHT31;68949;53.176;18.088;2023-05-18T03:43:42;4.79;76.71
79489;SHT31;68949;53.176;18.088;2023-05-18T03:46:09;4.84;76.61
79489;SHT31;68949;53.176;18.088;2023-05-18T03:48:35;4.89;76.52
79489;SHT31;68949;53.176;18.088;2023-05-18T03:51:03;4.93;76.53
79489;SHT31;68949;53.176;18.088;2023-05-18T03:53:31;4.96;76.50
79489;SHT31;68949;53.176;18.088;2023-05-18T03:55:59;5.01;76.62
79489;SHT31;68949;53.176;18.088;2023-05-18T03:58:26;5.07;76.46
79489;SHT31;68949;53.176;18.088;2023-05-18T04:00:53;5.11;76.47
79489;SHT31;68949;53.176;18.088;2023-05-18T04:03:20;5.16;76.47
79489;SHT31;68949;53.176;18.088;2023-05-18T04:05:50;5.20;76.49
79489;SHT31;68949;53.176;18.088;2023-05-18T04:08:18;5.25;76.49
79489;SHT31;68949;53.176;18.088;2023-05-18T04:10:45;5.33;76.35
79489;SHT31;68949;53.176;18.088;2023-05-18T04:13:12;5.40;76.17
79489;SHT31;68949;53.176;18.088;2023-05-18T04:15:39;5.46;76.10
79489;SHT31;68949;53.176;18.088;2023-05-18T04:18:05;5.59;75.87
79489;SHT31;68949;53.176;18.088;2023-05-18T04:20:33;5.86;75.42
79489;SHT31;68949;53.176;18.088;2023-05-18T04:23:03;6.16;74.76
79489;SHT31;68949;53.176;18.088;2023-05-18T04:25:30;6.33;74.50
79489;SHT31;68949;53.176;18.088;2023-05-18T04:27:57;6.60;73.69
79489;SHT31;68949;53.176;18.088;2023-05-18T04:30:25;6.91;73.17
79489;SHT31;68949;53.176;18.088;2023-05-18T04:32:55;7.28;72.33
79489;SHT31;68949;53.176;18.088;2023-05-18T04:35:23;7.70;71.01
79489;SHT31;68949;53.176;18.088;2023-05-18T04:37:52;8.01;70.01
79489;SHT31;68949;53.176;18.088;2023-05-18T04:40:19;8.30;69.00
79489;SHT31;68949;53.176;18.088;2023-05-18T04:42:47;8.61;68.80
79489;SHT31;68949;53.176;18.088;2023-05-18T04:45:17;8.97;68.01
79489;SHT31;68949;53.176;18.088;2023-05-18T04:47:46;9.25;67.51
79489;SHT31;68949;53.176;18.088;2023-05-18T04:50:18;9.59;66.71
79489;SHT31;68949;53.176;18.088;2023-05-18T04:52:49;9.93;66.39
79489;SHT31;68949;53.176;18.088;2023-05-18T04:55:19;10.17;65.24
79489;SHT31;68949;53.176;18.088;2023-05-18T04:57:51;10.23;64.21
79489;SHT31;68949;53.176;18.088;2023-05-18T05:00:22;10.23;64.05
79489;SHT31;68949;53.176;18.088;2023-05-18T05:02:51;10.23;64.24
79489;SHT31;68949;53.176;18.088;2023-05-18T05:05:19;10.26;64.08
79489;SHT31;68949;53.176;18.088;2023-05-18T05:07:48;10.26;64.11
79489;SHT31;68949;53.176;18.088;2023-05-18T05:10:17;10.21;63.91
79489;SHT31;68949;53.176;18.088;2023-05-18T05:12:45;10.15;64.57
79489;SHT31;68949;53.176;18.088;2023-05-18T05:15:12;10.20;63.24
79489;SHT31;68949;53.176;18.088;2023-05-18T05:17:39;10.18;62.95
79489;SHT31;68949;53.176;18.088;2023-05-18T05:20:08;10.15;62.96
79489;SHT31;68949;53.176;18.088;2023-05-18T05:22:35;10.23;63.76
79489;SHT31;68949;53.176;18.088;2023-05-18T05:25:03;10.38;62.52
79489;SHT31;68949;53.176;18.088;2023-05-18T05:27:30;10.36;62.39
79489;SHT31;68949;53.176;18.088;2023-05-18T05:29:57;10.43;62.64
79489;SHT31;68949;53.176;18.088;2023-05-18T05:32:24;10.58;61.89
79489;SHT31;68949;53.176;18.088;2023-05-18T05:34:51;10.55;61.34
79489;SHT31;68949;53.176;18.088;2023-05-18T05:37:19;10.51;61.78
79489;SHT31;68949;53.176;18.088;2023-05-18T05:39:46;10.66;61.94
79489;SHT31;68949;53.176;18.088;2023-05-18T05:42:16;10.89;62.00
79489;SHT31;68949;53.176;18.088;2023-05-18T05:44:42;11.18;61.27
79489;SHT31;68949;53.176;18.088;2023-05-18T05:47:09;11.29;60.57
79489;SHT31;68949;53.176;18.088;2023-05-18T05:49:37;11.49;60.02
79489;SHT31;68949;53.176;18.088;2023-05-18T05:52:05;11.63;59.84
79489;SHT31;68949;53.176;18.088;2023-05-18T05:54:32;11.99;59.60
79489;SHT31;68949;53.176;18.088;2023-05-18T05:56:59;12.37;59.37
79489;SHT31;68949;53.176;18.088;2023-05-18T05:59:27;12.58;57.40
79489;SHT31;68949;53.176;18.088;2023-05-18T06:01:54;12.43;56.45
79489;SHT31;68949;53.176;18.088;2023-05-18T06:04:21;12.17;56.58
79489;SHT31;68949;53.176;18.088;2023-05-18T06:06:48;12.22;57.19
79489;SHT31;68949;53.176;18.088;2023-05-18T06:09:16;12.45;57.29
79489;SHT31;68949;53.176;18.088;2023-05-18T06:11:42;12.57;56.71
79489;SHT31;68949;53.176;18.088;2023-05-18T06:14:09;12.65;56.78
79489;SHT31;68949;53.176;18.088;2023-05-18T06:16:37;12.68;56.93
79489;SHT31;68949;53.176;18.088;2023-05-18T06:19:04;12.71;55.85
79489;SHT31;68949;53.176;18.088;2023-05-18T06:21:31;12.43;55.79
79489;SHT31;68949;53.176;18.088;2023-05-18T06:23:59;12.43;56.24
79489;SHT31;68949;53.176;18.088;2023-05-18T06:26:34;12.61;56.37
79489;SHT31;68949;53.176;18.088;2023-05-18T06:29:15;12.70;56.60
79489;SHT31;68949;53.176;18.088;2023-05-18T06:32:01;12.49;56.26
79489;SHT31;68949;53.176;18.088;2023-05-18T06:34:37;12.56;56.88
79489;SHT31;68949;53.176;18.088;2023-05-18T06:37:03;12.41;55.74
79489;SHT31;68949;53.176;18.088;2023-05-18T06:39:31;12.31;55.83
79489;SHT31;68949;53.176;18.088;2023-05-18T06:41:58;12.31;56.49
79489;SHT31;68949;53.176;18.088;2023-05-18T06:44:31;12.37;56.59
79489;SHT31;68949;53.176;18.088;2023-05-18T06:47:05;12.31;55.82
79489;SHT31;68949;53.176;18.088;2023-05-18T06:49:32;12.27;55.67
79489;SHT31;68949;53.176;18.088;2023-05-18T06:51:59;12.41;56.48
79489;SHT31;68949;53.176;18.088;2023-05-18T06:54:26;12.54;56.20
79489;SHT31;68949;53.176;18.088;2023-05-18T06:56:55;12.60;55.93
79489;SHT31;68949;53.176;18.088;2023-05-18T06:59:22;12.44;55.27
79489;SHT31;68949;53.176;18.088;2023-05-18T07:01:49;12.36;55.71
79489;SHT31;68949;53.176;18.088;2023-05-18T07:04:16;12.50;55.27
79489;SHT31;68949;53.176;18.088;2023-05-18T07:06:44;12.62;55.13
79489;SHT31;68949;53.176;18.088;2023-05-18T07:09:11;12.60;55.33
79489;SHT31;68949;53.176;18.088;2023-05-18T07:11:38;12.55;55.01
79489;SHT31;68949;53.176;18.088;2023-05-18T07:14:05;12.66;54.86
79489;SHT31;68949;53.176;18.088;2023-05-18T07:16:32;12.71;53.78
79489;SHT31;68949;53.176;18.088;2023-05-18T07:19:00;12.72;53.56
79489;SHT31;68949;53.176;18.088;2023-05-18T07:21:27;12.67;53.50
79489;SHT31;68949;53.176;18.088;2023-05-18T07:23:54;12.67;53.24
79489;SHT31;68949;53.176;18.088;2023-05-18T07:26:21;12.69;52.74
79489;SHT31;68949;53.176;18.088;2023-05-18T07:28:48;12.76;53.27
79489;SHT31;68949;53.176;18.088;2023-05-18T07:31:16;12.82;52.01
79489;SHT31;68949;53.176;18.088;2023-05-18T07:33:46;12.83;52.03
79489;SHT31;68949;53.176;18.088;2023-05-18T07:36:13;12.90;51.99
79489;SHT31;68949;53.176;18.088;2023-05-18T07:38:40;13.01;51.11
79489;SHT31;68949;53.176;18.088;2023-05-18T07:41:07;13.25;51.13
79489;SHT31;68949;53.176;18.088;2023-05-18T07:43:33;13.26;50.60
79489;SHT31;68949;53.176;18.088;2023-05-18T07:46:00;13.34;50.30
79489;SHT31;68949;53.176;18.088;2023-05-18T07:48:27;13.27;50.46
79489;SHT31;68949;53.176;18.088;2023-05-18T07:50:53;13.29;51.45
79489;SHT31;68949;53.176;18.088;2023-05-18T07:53:20;13.66;51.61
79489;SHT31;68949;53.176;18.088;2023-05-18T07:55:47;13.84;51.15
79489;SHT31;68949;53.176;18.088;2023-05-18T07:58:15;13.90;50.84
79489;SHT31;68949;53.176;18.088;2023-05-18T08:00:41;14.08;50.82
79489;SHT31;68949;53.176;18.088;2023-05-18T08:03:09;13.99;50.72
79489;SHT31;68949;53.176;18.088;2023-05-18T08:05:36;14.08;50.44
79489;SHT31;68949;53.176;18.088;2023-05-18T08:08:03;13.99;49.67
79489;SHT31;68949;53.176;18.088;2023-05-18T08:10:29;13.91;49.48
79489;SHT31;68949;53.176;18.088;2023-05-18T08:12:56;13.74;49.61
79489;SHT31;68949;53.176;18.088;2023-05-18T08:15:23;13.74;50.50
79489;SHT31;68949;53.176;18.088;2023-05-18T08:17:49;13.90;50.91
79489;SHT31;68949;53.176;18.088;2023-05-18T08:20:17;14.00;50.39
79489;SHT31;68949;53.176;18.088;2023-05-18T08:22:44;14.07;51.01
79489;SHT31;68949;53.176;18.088;2023-05-18T08:25:11;14.12;49.78
79489;SHT31;68949;53.176;18.088;2023-05-18T08:27:38;13.99;49.99
79489;SHT31;68949;53.176;18.088;2023-05-18T08:30:04;13.94;50.63
79489;SHT31;68949;53.176;18.088;2023-05-18T08:32:32;14.07;50.80
79489;SHT31;68949;53.176;18.088;2023-05-18T08:35:05;14.19;49.66
79489;SHT31;68949;53.176;18.088;2023-05-18T08:37:33;14.04;49.64
79489;SHT31;68949;53.176;18.088;2023-05-18T08:40:03;14.03;50.78
79489;SHT31;68949;53.176;18.088;2023-05-18T08:42:43;14.19;50.63
79489;SHT31;68949;53.176;18.088;2023-05-18T08:45:17;14.29;49.61
79489;SHT31;68949;53.176;18.088;2023-05-18T08:47:50;14.30;49.97
79489;SHT31;68949;53.176;18.088;2023-05-18T08:50:22;14.31;49.40
79489;SHT31;68949;53.176;18.088;2023-05-18T08:52:53;14.30;49.73
79489;SHT31;68949;53.176;18.088;2023-05-18T08:55:22;14.47;49.48
79489;SHT31;68949;53.176;18.088;2023-05-18T08:57:49;14.73;50.27
79489;SHT31;68949;53.176;18.088;2023-05-18T09:00:22;14.67;49.18
79489;SHT31;68949;53.176;18.088;2023-05-18T09:02:49;14.28;49.75
79489;SHT31;68949;53.176;18.088;2023-05-18T09:05:16;14.23;51.04
79489;SHT31;68949;53.176;18.088;2023-05-18T09:07:45;14.48;50.44
79489;SHT31;68949;53.176;18.088;2023-05-18T09:10:12;14.77;50.77
79489;SHT31;68949;53.176;18.088;2023-05-18T09:12:41;14.93;49.23
79489;SHT31;68949;53.176;18.088;2023-05-18T09:15:12;15.17;49.51
79489;SHT31;68949;53.176;18.088;2023-05-18T09:17:42;15.36;48.29
79489;SHT31;68949;53.176;18.088;2023-05-18T09:20:09;15.55;48.95
79489;SHT31;68949;53.176;18.088;2023-05-18T09:22:36;15.74;48.35
79489;SHT31;68949;53.176;18.088;2023-05-18T09:25:08;15.76;47.82
79489;SHT31;68949;53.176;18.088;2023-05-18T09:27:36;15.79;47.64
79489;SHT31;68949;53.176;18.088;2023-05-18T09:30:03;15.87;47.37
79489;SHT31;68949;53.176;18.088;2023-05-18T09:32:36;15.97;47.48
79489;SHT31;68949;53.176;18.088;2023-05-18T09:35:03;15.75;47.39
79489;SHT31;68949;53.176;18.088;2023-05-18T09:37:31;15.92;47.29
79489;SHT31;68949;53.176;18.088;2023-05-18T09:40:00;16.01;46.53
79489;SHT31;68949;53.176;18.088;2023-05-18T09:42:40;15.94;47.16
79489;SHT31;68949;53.176;18.088;2023-05-18T09:45:18;15.93;45.69
79489;SHT31;68949;53.176;18.088;2023-05-18T09:47:49;15.90;46.81
79489;SHT31;68949;53.176;18.088;2023-05-18T09:50:22;15.95;46.18
79489;SHT31;68949;53.176;18.088;2023-05-18T09:52:49;15.88;46.52
79489;SHT31;68949;53.176;18.088;2023-05-18T09:55:17;16.02;46.56
79489;SHT31;68949;53.176;18.088;2023-05-18T09:57:47;16.02;46.14
79489;SHT31;68949;53.176;18.088;2023-05-18T10:00:16;16.07;46.07
79489;SHT31;68949;53.176;18.088;2023-05-18T10:02:45;15.99;44.84
79489;SHT31;68949;53.176;18.088;2023-05-18T10:05:18;15.75;45.41
79489;SHT31;68949;53.176;18.088;2023-05-18T10:07:46;15.74;45.74
79489;SHT31;68949;53.176;18.088;2023-05-18T10:10:18;15.73;45.45
79489;SHT31;68949;53.176;18.088;2023-05-18T10:12:52;15.84;46.58
79489;SHT31;68949;53.176;18.088;2023-05-18T10:15:20;15.95;45.63
79489;SHT31;68949;53.176;18.088;2023-05-18T10:17:49;16.07;46.08
79489;SHT31;68949;53.176;18.088;2023-05-18T10:20:21;16.24;45.38
79489;SHT31;68949;53.176;18.088;2023-05-18T10:22:53;15.87;43.31
79489;SHT31;68949;53.176;18.088;2023-05-18T10:25:22;15.49;45.00
79489;SHT31;68949;53.176;18.088;2023-05-18T10:27:55;15.62;46.27
79489;SHT31;68949;53.176;18.088;2023-05-18T10:30:26;16.02;46.42
79489;SHT31;68949;53.176;18.088;2023-05-18T10:32:54;16.38;45.85
79489;SHT31;68949;53.176;18.088;2023-05-18T10:35:22;16.51;45.25
79489;SHT31;68949;53.176;18.088;2023-05-18T10:37:54;16.12;44.06
79489;SHT31;68949;53.176;18.088;2023-05-18T10:40:23;15.81;44.00
79489;SHT31;68949;53.176;18.088;2023-05-18T10:42:52;15.90;44.88
79489;SHT31;68949;53.176;18.088;2023-05-18T10:45:22;16.06;44.57
79489;SHT31;68949;53.176;18.088;2023-05-18T10:47:50;16.10;44.43
79489;SHT31;68949;53.176;18.088;2023-05-18T10:50:21;16.04;45.02
79489;SHT31;68949;53.176;18.088;2023-05-18T10:52:49;15.94;45.73
79489;SHT31;68949;53.176;18.088;2023-05-18T10:55:17;16.17;45.64
79489;SHT31;68949;53.176;18.088;2023-05-18T10:57:45;16.46;45.30
79489;SHT31;68949;53.176;18.088;2023-05-18T11:00:19;16.43;43.62
79489;SHT31;68949;53.176;18.088;2023-05-18T11:02:46;16.43;44.82
79489;SHT31;68949;53.176;18.088;2023-05-18T11:05:22;16.48;44.77
79489;SHT31;68949;53.176;18.088;2023-05-18T11:07:58;16.75;44.95
79489;SHT31;68949;53.176;18.088;2023-05-18T11:13:06;17.36;44.18
79489;SHT31;68949;53.176;18.088;2023-05-18T11:18:18;17.19;43.42
79489;SHT31;68949;53.176;18.088;2023-05-18T11:20:46;17.25;44.17
79489;SHT31;68949;53.176;18.088;2023-05-18T11:23:14;17.47;44.36
79489;SHT31;68949;53.176;18.088;2023-05-18T11:25:41;17.60;43.56
79489;SHT31;68949;53.176;18.088;2023-05-18T11:28:10;17.40;42.25
79489;SHT31;68949;53.176;18.088;2023-05-18T11:38:46;17.48;43.28
79489;SHT31;68949;53.176;18.088;2023-05-18T11:46:54;17.52;41.23
79489;SHT31;68949;53.176;18.088;2023-05-18T11:49:30;17.37;41.35
79489;SHT31;68949;53.176;18.088;2023-05-18T11:52:06;17.32;42.69
79489;SHT31;68949;53.176;18.088;2023-05-18T11:54:56;17.30;42.84
79489;SHT31;68949;53.176;18.088;2023-05-18T12:00:03;16.82;41.65
79489;SHT31;68949;53.176;18.088;2023-05-18T12:02:42;16.82;41.98
79489;SHT31;68949;53.176;18.088;2023-05-18T12:05:12;16.94;42.06
79489;SHT31;68949;53.176;18.088;2023-05-18T12:07:40;17.04;41.69
79489;SHT31;68949;53.176;18.088;2023-05-18T12:10:08;16.95;41.28
79489;SHT31;68949;53.176;18.088;2023-05-18T12:12:37;16.80;42.34
79489;SHT31;68949;53.176;18.088;2023-05-18T12:15:09;16.97;43.41
79489;SHT31;68949;53.176;18.088;2023-05-18T12:20:17;17.50;41.40
79489;SHT31;68949;53.176;18.088;2023-05-18T12:22:53;17.14;40.68
79489;SHT31;68949;53.176;18.088;2023-05-18T12:25:22;16.96;41.24
79489;SHT31;68949;53.176;18.088;2023-05-18T12:27:52;16.94;42.53
79489;SHT31;68949;53.176;18.088;2023-05-18T12:30:22;17.09;41.98
79489;SHT31;68949;53.176;18.088;2023-05-18T12:33:00;17.36;41.99
79489;SHT31;68949;53.176;18.088;2023-05-18T12:35:29;17.50;41.29
79489;SHT31;68949;53.176;18.088;2023-05-18T12:37:57;17.58;40.02
79489;SHT31;68949;53.176;18.088;2023-05-18T12:40:33;17.60;39.97
79489;SHT31;68949;53.176;18.088;2023-05-18T12:43:11;17.75;39.46
79489;SHT31;68949;53.176;18.088;2023-05-18T12:45:38;17.66;38.52
79489;SHT31;68949;53.176;18.088;2023-05-18T12:48:06;17.48;38.58
79489;SHT31;68949;53.176;18.088;2023-05-18T12:50:35;17.45;38.90
79489;SHT31;68949;53.176;18.088;2023-05-18T12:53:16;17.47;39.06
79489;SHT31;68949;53.176;18.088;2023-05-18T12:55:56;17.58;39.00
79489;SHT31;68949;53.176;18.088;2023-05-18T12:58:27;17.62;38.32
79489;SHT31;68949;53.176;18.088;2023-05-18T13:00:53;17.56;37.70
79489;SHT31;68949;53.176;18.088;2023-05-18T13:03:20;17.60;38.22
79489;SHT31;68949;53.176;18.088;2023-05-18T13:06:00;17.68;37.33
79489;SHT31;68949;53.176;18.088;2023-05-18T13:08:30;17.72;37.64
79489;SHT31;68949;53.176;18.088;2023-05-18T13:11:02;17.71;37.59
79489;SHT31;68949;53.176;18.088;2023-05-18T13:13:31;17.78;37.27
79489;SHT31;68949;53.176;18.088;2023-05-18T13:15:59;17.80;37.63
79489;SHT31;68949;53.176;18.088;2023-05-18T13:18:26;17.87;38.27
79489;SHT31;68949;53.176;18.088;2023-05-18T13:20:55;17.79;37.08
79489;SHT31;68949;53.176;18.088;2023-05-18T13:23:26;17.82;37.87
79489;SHT31;68949;53.176;18.088;2023-05-18T13:25:54;17.89;37.69
79489;SHT31;68949;53.176;18.088;2023-05-18T13:28:22;17.85;37.39
79489;SHT31;68949;53.176;18.088;2023-05-18T13:30:48;17.94;37.50
79489;SHT31;68949;53.176;18.088;2023-05-18T13:33:17;17.94;38.17
79489;SHT31;68949;53.176;18.088;2023-05-18T13:35:44;17.96;38.68
79489;SHT31;68949;53.176;18.088;2023-05-18T13:38:14;18.02;37.96
79489;SHT31;68949;53.176;18.088;2023-05-18T13:40:43;18.02;38.21
79489;SHT31;68949;53.176;18.088;2023-05-18T13:43:11;18.14;38.12
79489;SHT31;68949;53.176;18.088;2023-05-18T13:45:38;18.25;38.05
79489;SHT31;68949;53.176;18.088;2023-05-18T13:48:05;17.99;37.47
79489;SHT31;68949;53.176;18.088;2023-05-18T13:50:32;17.94;37.79
79489;SHT31;68949;53.176;18.088;2023-05-18T13:52:59;17.97;37.89
79489;SHT31;68949;53.176;18.088;2023-05-18T13:55:26;18.16;37.87
79489;SHT31;68949;53.176;18.088;2023-05-18T13:57:53;18.30;37.38
79489;SHT31;68949;53.176;18.088;2023-05-18T14:00:20;18.37;37.96
79489;SHT31;68949;53.176;18.088;2023-05-18T14:02:47;18.21;38.36
79489;SHT31;68949;53.176;18.088;2023-05-18T14:05:13;17.96;38.50
79489;SHT31;68949;53.176;18.088;2023-05-18T14:07:41;17.84;38.97
79489;SHT31;68949;53.176;18.088;2023-05-18T14:10:10;17.83;39.44
79489;SHT31;68949;53.176;18.088;2023-05-18T14:12:38;17.84;38.87
79489;SHT31;68949;53.176;18.088;2023-05-18T14:15:07;17.75;38.24
79489;SHT31;68949;53.176;18.088;2023-05-18T14:17:35;17.74;39.22
79489;SHT31;68949;53.176;18.088;2023-05-18T14:20:02;17.79;39.38
79489;SHT31;68949;53.176;18.088;2023-05-18T14:22:33;17.70;39.16
79489;SHT31;68949;53.176;18.088;2023-05-18T14:25:00;17.69;39.09
79489;SHT31;68949;53.176;18.088;2023-05-18T14:27:27;17.65;39.18
79489;SHT31;68949;53.176;18.088;2023-05-18T14:29:54;17.74;39.42
79489;SHT31;68949;53.176;18.088;2023-05-18T14:32:21;17.86;38.88
79489;SHT31;68949;53.176;18.088;2023-05-18T14:34:48;17.92;38.86
79489;SHT31;68949;53.176;18.088;2023-05-18T14:37:17;17.91;38.98
79489;SHT31;68949;53.176;18.088;2023-05-18T14:39:44;17.92;39.55
79489;SHT31;68949;53.176;18.088;2023-05-18T14:42:11;17.75;39.27
79489;SHT31;68949;53.176;18.088;2023-05-18T14:44:38;17.69;39.98
79489;SHT31;68949;53.176;18.088;2023-05-18T14:47:05;17.75;39.56
79489;SHT31;68949;53.176;18.088;2023-05-18T14:49:31;17.74;38.79
79489;SHT31;68949;53.176;18.088;2023-05-18T14:51:58;17.77;39.04
79489;SHT31;68949;53.176;18.088;2023-05-18T14:54:25;17.85;40.29
79489;SHT31;68949;53.176;18.088;2023-05-18T14:56:52;17.95;38.53
79489;SHT31;68949;53.176;18.088;2023-05-18T14:59:18;18.01;38.68
79489;SHT31;68949;53.176;18.088;2023-05-18T15:01:46;17.95;38.87
79489;SHT31;68949;53.176;18.088;2023-05-18T15:04:13;17.60;38.89
79489;SHT31;68949;53.176;18.088;2023-05-18T15:06:40;17.35;40.18
79489;SHT31;68949;53.176;18.088;2023-05-18T15:09:07;17.21;40.33
79489;SHT31;68949;53.176;18.088;2023-05-18T15:11:34;17.28;40.02
79489;SHT31;68949;53.176;18.088;2023-05-18T15:14:00;17.43;39.81
79489;SHT31;68949;53.176;18.088;2023-05-18T15:16:27;17.51;39.42
79489;SHT31;68949;53.176;18.088;2023-05-18T15:18:54;17.57;39.33
79489;SHT31;68949;53.176;18.088;2023-05-18T15:21:20;17.59;39.38
79489;SHT31;68949;53.176;18.088;2023-05-18T15:23:47;17.52;39.71
79489;SHT31;68949;53.176;18.088;2023-05-18T15:26:14;17.47;40.33
79489;SHT31;68949;53.176;18.088;2023-05-18T15:28:41;17.27;39.65
79489;SHT31;68949;53.176;18.088;2023-05-18T15:31:10;17.07;40.63
79489;SHT31;68949;53.176;18.088;2023-05-18T15:33:36;17.01;40.49
79489;SHT31;68949;53.176;18.088;2023-05-18T15:36:07;17.07;41.01
79489;SHT31;68949;53.176;18.088;2023-05-18T15:38:36;17.09;40.37
79489;SHT31;68949;53.176;18.088;2023-05-18T15:41:04;17.07;40.48
79489;SHT31;68949;53.176;18.088;2023-05-18T15:43:30;17.11;40.67
79489;SHT31;68949;53.176;18.088;2023-05-18T15:46:00;17.02;40.38
79489;SHT31;68949;53.176;18.088;2023-05-18T15:48:26;16.97;40.73
79489;SHT31;68949;53.176;18.088;2023-05-18T15:50:54;16.96;41.09
79489;SHT31;68949;53.176;18.088;2023-05-18T15:53:21;16.98;41.01
79489;SHT31;68949;53.176;18.088;2023-05-18T15:55:48;16.96;41.21
79489;SHT31;68949;53.176;18.088;2023-05-18T15:58:16;16.97;41.18
79489;SHT31;68949;53.176;18.088;2023-05-18T16:00:42;16.98;41.41
79489;SHT31;68949;53.176;18.088;2023-05-18T16:03:09;17.00;41.00
79489;SHT31;68949;53.176;18.088;2023-05-18T16:05:36;17.04;41.18
79489;SHT31;68949;53.176;18.088;2023-05-18T16:08:02;17.10;41.20
79489;SHT31;68949;53.176;18.088;2023-05-18T16:10:29;17.14;41.46